Atkinson, Maine
Current Conditions -  °F | °C
As of 10:53 AM on Friday 19 Dec 2014 (Local Time) from KBGR Reporting Station
Broken Clouds Broken Clouds  
Wind Chill: -7°   Ceiling: 2500
Heat Index: -1°   Visibility: 10mi
Dew Point: -6°   Wind: 15mph
Humidity: 72%   Direction: 310°NW
Pressure: 29.89"   Gusts: NA
Location:  45.2129°N, 69.1615°W
Report Text: KBGR 191553Z 31013KT 10SM SCT019 BKN025 M01/M06 A2989 RMK AO2 SLP124 T10111056
Loading
Personal Weather Stations






























Interactive Weather Map New forecast layout! Learn more

10-Day Weather Forecast

Advertisements
Track Severe Weather on mobile